sensor_id;sensor_type;location;lat;lon;timestamp;P1;durP1;ratioP1;P2;durP2;ratioP2
79412;SDS011;68863;49.528;11.010;2023-08-07T00:00:03;1.00;;;0.10;;
79412;SDS011;68863;49.528;11.010;2023-08-07T00:01:05;0.45;;;0.05;;
79412;SDS011;68863;49.528;11.010;2023-08-07T00:02:05;0.52;;;0.10;;
79412;SDS011;68863;49.528;11.010;2023-08-07T00:03:06;0.55;;;0.10;;
79412;SDS011;68863;49.528;11.010;2023-08-07T00:04:07;0.30;;;0.03;;
79412;SDS011;68863;49.528;11.010;2023-08-07T00:05:07;0.65;;;0.13;;
79412;SDS011;68863;49.528;11.010;2023-08-07T00:06:07;0.63;;;0.10;;
79412;SDS011;68863;49.528;11.010;2023-08-07T00:07:08;0.52;;;0.10;;
79412;SDS011;68863;49.528;11.010;2023-08-07T00:08:08;1.38;;;0.08;;
79412;SDS011;68863;49.528;11.010;2023-08-07T00:09:08;0.28;;;0.05;;
79412;SDS011;68863;49.528;11.010;2023-08-07T00:10:09;0.60;;;0.20;;
79412;SDS011;68863;49.528;11.010;2023-08-07T00:11:10;1.15;;;0.10;;
79412;SDS011;68863;49.528;11.010;2023-08-07T00:12:10;0.20;;;0.10;;
79412;SDS011;68863;49.528;11.010;2023-08-07T00:13:11;0.45;;;0.20;;
79412;SDS011;68863;49.528;11.010;2023-08-07T00:14:11;0.75;;;0.03;;
79412;SDS011;68863;49.528;11.010;2023-08-07T00:15:11;0.40;;;0.03;;
79412;SDS011;68863;49.528;11.010;2023-08-07T00:16:12;0.20;;;0.00;;
79412;SDS011;68863;49.528;11.010;2023-08-07T00:17:12;0.40;;;0.00;;
79412;SDS011;68863;49.528;11.010;2023-08-07T00:18:12;0.77;;;0.10;;
79412;SDS011;68863;49.528;11.010;2023-08-07T00:19:12;0.55;;;0.10;;
79412;SDS011;68863;49.528;11.010;2023-08-07T00:20:13;0.70;;;0.10;;
79412;SDS011;68863;49.528;11.010;2023-08-07T00:21:13;0.13;;;0.05;;
79412;SDS011;68863;49.528;11.010;2023-08-07T00:22:13;0.38;;;0.03;;
79412;SDS011;68863;49.528;11.010;2023-08-07T00:23:13;0.77;;;0.03;;
79412;SDS011;68863;49.528;11.010;2023-08-07T00:24:14;0.60;;;0.10;;
79412;SDS011;68863;49.528;11.010;2023-08-07T00:25:14;1.80;;;0.20;;
79412;SDS011;68863;49.528;11.010;2023-08-07T00:26:14;0.65;;;0.10;;
79412;SDS011;68863;49.528;11.010;2023-08-07T00:27:15;0.80;;;0.10;;
79412;SDS011;68863;49.528;11.010;2023-08-07T00:28:15;0.47;;;0.10;;
79412;SDS011;68863;49.528;11.010;2023-08-07T00:29:15;0.70;;;0.08;;
79412;SDS011;68863;49.528;11.010;2023-08-07T00:30:21;0.73;;;0.00;;
79412;SDS011;68863;49.528;11.010;2023-08-07T00:31:22;0.38;;;0.05;;
79412;SDS011;68863;49.528;11.010;2023-08-07T00:32:22;0.35;;;0.03;;
79412;SDS011;68863;49.528;11.010;2023-08-07T00:33:22;0.10;;;0.00;;
79412;SDS011;68863;49.528;11.010;2023-08-07T00:34:23;0.50;;;0.10;;
79412;SDS011;68863;49.528;11.010;2023-08-07T00:35:23;0.57;;;0.10;;
79412;SDS011;68863;49.528;11.010;2023-08-07T00:36:23;1.03;;;0.00;;
79412;SDS011;68863;49.528;11.010;2023-08-07T00:37:24;1.17;;;0.10;;
79412;SDS011;68863;49.528;11.010;2023-08-07T00:38:24;0.20;;;0.00;;
79412;SDS011;68863;49.528;11.010;2023-08-07T00:39:24;0.45;;;0.00;;
79412;SDS011;68863;49.528;11.010;2023-08-07T00:40:25;0.22;;;0.00;;
79412;SDS011;68863;49.528;11.010;2023-08-07T00:41:25;1.67;;;0.10;;
79412;SDS011;68863;49.528;11.010;2023-08-07T00:42:25;3.95;;;0.22;;
79412;SDS011;68863;49.528;11.010;2023-08-07T00:43:25;0.05;;;0.00;;
79412;SDS011;68863;49.528;11.010;2023-08-07T00:44:28;0.30;;;0.03;;
79412;SDS011;68863;49.528;11.010;2023-08-07T00:45:29;0.22;;;0.10;;
79412;SDS011;68863;49.528;11.010;2023-08-07T00:46:30;1.35;;;0.03;;
79412;SDS011;68863;49.528;11.010;2023-08-07T00:47:30;0.40;;;0.08;;
79412;SDS011;68863;49.528;11.010;2023-08-07T00:48:31;1.55;;;0.08;;
79412;SDS011;68863;49.528;11.010;2023-08-07T00:49:31;0.82;;;0.10;;
79412;SDS011;68863;49.528;11.010;2023-08-07T00:50:33;1.27;;;0.05;;
79412;SDS011;68863;49.528;11.010;2023-08-07T00:51:33;1.02;;;0.10;;
79412;SDS011;68863;49.528;11.010;2023-08-07T00:52:33;0.82;;;0.10;;
79412;SDS011;68863;49.528;11.010;2023-08-07T00:53:37;0.30;;;0.03;;
79412;SDS011;68863;49.528;11.010;2023-08-07T00:54:38;0.80;;;0.05;;
79412;SDS011;68863;49.528;11.010;2023-08-07T00:55:38;1.08;;;0.10;;
79412;SDS011;68863;49.528;11.010;2023-08-07T00:56:39;0.35;;;0.00;;
79412;SDS011;68863;49.528;11.010;2023-08-07T00:57:39;0.65;;;0.10;;
79412;SDS011;68863;49.528;11.010;2023-08-07T00:58:40;1.00;;;0.20;;
79412;SDS011;68863;49.528;11.010;2023-08-07T00:59:40;1.45;;;0.10;;
79412;SDS011;68863;49.528;11.010;2023-08-07T01:00:41;1.02;;;0.10;;
79412;SDS011;68863;49.528;11.010;2023-08-07T01:01:42;0.93;;;0.03;;
79412;SDS011;68863;49.528;11.010;2023-08-07T01:02:43;0.45;;;0.05;;
79412;SDS011;68863;49.528;11.010;2023-08-07T01:03:43;0.32;;;0.00;;
79412;SDS011;68863;49.528;11.010;2023-08-07T01:04:44;0.47;;;0.00;;
79412;SDS011;68863;49.528;11.010;2023-08-07T01:05:44;0.32;;;0.03;;
79412;SDS011;68863;49.528;11.010;2023-08-07T01:06:44;0.27;;;0.00;;
79412;SDS011;68863;49.528;11.010;2023-08-07T01:07:46;1.07;;;0.00;;
79412;SDS011;68863;49.528;11.010;2023-08-07T01:08:47;0.82;;;0.10;;
79412;SDS011;68863;49.528;11.010;2023-08-07T01:09:47;1.05;;;0.10;;
79412;SDS011;68863;49.528;11.010;2023-08-07T01:10:51;0.45;;;0.10;;
79412;SDS011;68863;49.528;11.010;2023-08-07T01:11:57;0.68;;;0.03;;
79412;SDS011;68863;49.528;11.010;2023-08-07T01:13:32;0.77;;;0.00;;
79412;SDS011;68863;49.528;11.010;2023-08-07T01:14:51;0.40;;;0.00;;
79412;SDS011;68863;49.528;11.010;2023-08-07T01:15:59;1.30;;;0.30;;
79412;SDS011;68863;49.528;11.010;2023-08-07T01:17:16;1.65;;;0.20;;
79412;SDS011;68863;49.528;11.010;2023-08-07T01:18:19;0.30;;;0.00;;
79412;SDS011;68863;49.528;11.010;2023-08-07T01:19:28;0.60;;;0.03;;
79412;SDS011;68863;49.528;11.010;2023-08-07T01:20:29;0.80;;;0.10;;
79412;SDS011;68863;49.528;11.010;2023-08-07T01:21:30;2.78;;;0.20;;
79412;SDS011;68863;49.528;11.010;2023-08-07T01:22:32;1.05;;;0.10;;
79412;SDS011;68863;49.528;11.010;2023-08-07T01:23:32;0.52;;;0.08;;
79412;SDS011;68863;49.528;11.010;2023-08-07T01:24:33;2.05;;;0.10;;
79412;SDS011;68863;49.528;11.010;2023-08-07T01:25:34;0.50;;;0.10;;
79412;SDS011;68863;49.528;11.010;2023-08-07T01:26:38;0.73;;;0.10;;
79412;SDS011;68863;49.528;11.010;2023-08-07T01:28:02;0.30;;;0.03;;
79412;SDS011;68863;49.528;11.010;2023-08-07T01:29:12;0.60;;;0.10;;
79412;SDS011;68863;49.528;11.010;2023-08-07T01:31:29;0.22;;;0.10;;
79412;SDS011;68863;49.528;11.010;2023-08-07T01:33:19;0.45;;;0.10;;
79412;SDS011;68863;49.528;11.010;2023-08-07T01:34:00;0.52;;;0.00;;
79412;SDS011;68863;49.528;11.010;2023-08-07T01:35:03;1.80;;;0.10;;
79412;SDS011;68863;49.528;11.010;2023-08-07T01:36:05;0.55;;;0.10;;
79412;SDS011;68863;49.528;11.010;2023-08-07T01:37:09;0.98;;;0.10;;
79412;SDS011;68863;49.528;11.010;2023-08-07T01:38:11;1.00;;;0.03;;
79412;SDS011;68863;49.528;11.010;2023-08-07T01:39:12;1.77;;;0.10;;
79412;SDS011;68863;49.528;11.010;2023-08-07T01:40:13;0.55;;;0.10;;
79412;SDS011;68863;49.528;11.010;2023-08-07T01:41:15;0.88;;;0.13;;
79412;SDS011;68863;49.528;11.010;2023-08-07T01:42:15;0.77;;;0.03;;
79412;SDS011;68863;49.528;11.010;2023-08-07T01:43:16;0.60;;;0.30;;
79412;SDS011;68863;49.528;11.010;2023-08-07T01:44:18;0.40;;;0.00;;
79412;SDS011;68863;49.528;11.010;2023-08-07T01:45:25;0.93;;;0.30;;
79412;SDS011;68863;49.528;11.010;2023-08-07T01:46:26;1.13;;;0.10;;
79412;SDS011;68863;49.528;11.010;2023-08-07T01:47:27;0.98;;;0.10;;
79412;SDS011;68863;49.528;11.010;2023-08-07T01:48:27;1.05;;;0.20;;
79412;SDS011;68863;49.528;11.010;2023-08-07T01:49:27;0.60;;;0.10;;
79412;SDS011;68863;49.528;11.010;2023-08-07T01:50:28;1.00;;;0.10;;
79412;SDS011;68863;49.528;11.010;2023-08-07T01:51:29;0.40;;;0.10;;
79412;SDS011;68863;49.528;11.010;2023-08-07T01:52:29;0.75;;;0.10;;
79412;SDS011;68863;49.528;11.010;2023-08-07T01:53:30;0.85;;;0.10;;
79412;SDS011;68863;49.528;11.010;2023-08-07T01:54:30;0.63;;;0.00;;
79412;SDS011;68863;49.528;11.010;2023-08-07T01:55:30;0.75;;;0.10;;
79412;SDS011;68863;49.528;11.010;2023-08-07T01:56:31;1.30;;;0.30;;
79412;SDS011;68863;49.528;11.010;2023-08-07T01:57:31;0.65;;;0.13;;
79412;SDS011;68863;49.528;11.010;2023-08-07T01:58:32;1.70;;;0.15;;
79412;SDS011;68863;49.528;11.010;2023-08-07T01:59:32;1.27;;;0.30;;
79412;SDS011;68863;49.528;11.010;2023-08-07T02:00:32;0.70;;;0.10;;
79412;SDS011;68863;49.528;11.010;2023-08-07T02:01:32;0.63;;;0.10;;
79412;SDS011;68863;49.528;11.010;2023-08-07T02:02:33;1.15;;;0.20;;
79412;SDS011;68863;49.528;11.010;2023-08-07T02:03:33;0.45;;;0.20;;
79412;SDS011;68863;49.528;11.010;2023-08-07T02:04:33;1.10;;;0.13;;
79412;SDS011;68863;49.528;11.010;2023-08-07T02:05:34;0.65;;;0.10;;
79412;SDS011;68863;49.528;11.010;2023-08-07T02:06:34;0.47;;;0.10;;
79412;SDS011;68863;49.528;11.010;2023-08-07T02:07:34;0.65;;;0.10;;
79412;SDS011;68863;49.528;11.010;2023-08-07T02:08:35;1.13;;;0.10;;
79412;SDS011;68863;49.528;11.010;2023-08-07T02:09:35;1.52;;;0.03;;
79412;SDS011;68863;49.528;11.010;2023-08-07T02:10:35;0.43;;;0.10;;
79412;SDS011;68863;49.528;11.010;2023-08-07T02:11:36;0.70;;;0.17;;
79412;SDS011;68863;49.528;11.010;2023-08-07T02:12:36;0.53;;;0.10;;
79412;SDS011;68863;49.528;11.010;2023-08-07T02:13:36;1.45;;;0.20;;
79412;SDS011;68863;49.528;11.010;2023-08-07T02:14:38;0.85;;;0.30;;
79412;SDS011;68863;49.528;11.010;2023-08-07T02:15:38;0.40;;;0.10;;
79412;SDS011;68863;49.528;11.010;2023-08-07T02:16:38;0.88;;;0.10;;
79412;SDS011;68863;49.528;11.010;2023-08-07T02:17:39;1.95;;;0.20;;
79412;SDS011;68863;49.528;11.010;2023-08-07T02:18:41;1.77;;;0.17;;
79412;SDS011;68863;49.528;11.010;2023-08-07T02:19:41;1.10;;;0.10;;
79412;SDS011;68863;49.528;11.010;2023-08-07T02:20:41;2.35;;;0.47;;
79412;SDS011;68863;49.528;11.010;2023-08-07T02:21:50;0.83;;;0.10;;
79412;SDS011;68863;49.528;11.010;2023-08-07T02:22:51;0.35;;;0.08;;
79412;SDS011;68863;49.528;11.010;2023-08-07T02:23:51;1.27;;;0.20;;
79412;SDS011;68863;49.528;11.010;2023-08-07T02:24:51;2.47;;;0.28;;
79412;SDS011;68863;49.528;11.010;2023-08-07T02:25:52;1.02;;;0.10;;
79412;SDS011;68863;49.528;11.010;2023-08-07T02:26:52;1.15;;;0.20;;
79412;SDS011;68863;49.528;11.010;2023-08-07T02:27:52;0.52;;;0.17;;
79412;SDS011;68863;49.528;11.010;2023-08-07T02:28:53;0.40;;;0.10;;
79412;SDS011;68863;49.528;11.010;2023-08-07T02:29:53;1.27;;;0.22;;
79412;SDS011;68863;49.528;11.010;2023-08-07T02:30:54;0.47;;;0.10;;
79412;SDS011;68863;49.528;11.010;2023-08-07T02:31:54;1.57;;;0.10;;
79412;SDS011;68863;49.528;11.010;2023-08-07T02:32:54;1.25;;;0.10;;
79412;SDS011;68863;49.528;11.010;2023-08-07T02:33:54;0.50;;;0.10;;
79412;SDS011;68863;49.528;11.010;2023-08-07T02:34:55;1.02;;;0.22;;
79412;SDS011;68863;49.528;11.010;2023-08-07T02:35:56;1.63;;;0.20;;
79412;SDS011;68863;49.528;11.010;2023-08-07T02:36:56;1.02;;;0.20;;
79412;SDS011;68863;49.528;11.010;2023-08-07T02:37:57;1.60;;;0.10;;
79412;SDS011;68863;49.528;11.010;2023-08-07T02:38:57;1.27;;;0.10;;
79412;SDS011;68863;49.528;11.010;2023-08-07T02:39:58;1.33;;;0.30;;
79412;SDS011;68863;49.528;11.010;2023-08-07T02:40:58;1.58;;;0.17;;
79412;SDS011;68863;49.528;11.010;2023-08-07T02:41:58;0.98;;;0.13;;
79412;SDS011;68863;49.528;11.010;2023-08-07T02:42:58;1.83;;;0.13;;
79412;SDS011;68863;49.528;11.010;2023-08-07T02:43:59;1.88;;;0.20;;
79412;SDS011;68863;49.528;11.010;2023-08-07T02:44:59;1.20;;;0.10;;
79412;SDS011;68863;49.528;11.010;2023-08-07T02:45:59;1.57;;;0.10;;
79412;SDS011;68863;49.528;11.010;2023-08-07T02:46:59;1.13;;;0.10;;
79412;SDS011;68863;49.528;11.010;2023-08-07T02:48:00;0.88;;;0.10;;
79412;SDS011;68863;49.528;11.010;2023-08-07T02:49:00;1.20;;;0.10;;
79412;SDS011;68863;49.528;11.010;2023-08-07T02:50:00;1.07;;;0.10;;
79412;SDS011;68863;49.528;11.010;2023-08-07T02:51:01;1.20;;;0.20;;
79412;SDS011;68863;49.528;11.010;2023-08-07T02:52:01;1.25;;;0.13;;
79412;SDS011;68863;49.528;11.010;2023-08-07T02:53:01;1.42;;;0.20;;
79412;SDS011;68863;49.528;11.010;2023-08-07T02:54:02;0.73;;;0.10;;
79412;SDS011;68863;49.528;11.010;2023-08-07T02:55:02;1.80;;;0.17;;
79412;SDS011;68863;49.528;11.010;2023-08-07T02:56:03;1.95;;;0.10;;
79412;SDS011;68863;49.528;11.010;2023-08-07T02:57:03;0.47;;;0.10;;
79412;SDS011;68863;49.528;11.010;2023-08-07T02:58:04;1.42;;;0.20;;
79412;SDS011;68863;49.528;11.010;2023-08-07T02:59:04;0.93;;;0.13;;
79412;SDS011;68863;49.528;11.010;2023-08-07T03:00:05;0.90;;;0.10;;
79412;SDS011;68863;49.528;11.010;2023-08-07T03:01:06;1.75;;;0.20;;
79412;SDS011;68863;49.528;11.010;2023-08-07T03:02:06;1.70;;;0.22;;
79412;SDS011;68863;49.528;11.010;2023-08-07T03:03:07;0.85;;;0.10;;
79412;SDS011;68863;49.528;11.010;2023-08-07T03:04:07;1.23;;;0.10;;
79412;SDS011;68863;49.528;11.010;2023-08-07T03:05:08;1.55;;;0.20;;
79412;SDS011;68863;49.528;11.010;2023-08-07T03:06:08;1.73;;;0.20;;
79412;SDS011;68863;49.528;11.010;2023-08-07T03:07:08;0.80;;;0.20;;
79412;SDS011;68863;49.528;11.010;2023-08-07T03:08:09;0.80;;;0.20;;
79412;SDS011;68863;49.528;11.010;2023-08-07T03:09:09;1.40;;;0.10;;
79412;SDS011;68863;49.528;11.010;2023-08-07T03:10:10;1.13;;;0.20;;
79412;SDS011;68863;49.528;11.010;2023-08-07T03:11:11;1.13;;;0.17;;
79412;SDS011;68863;49.528;11.010;2023-08-07T03:12:12;1.30;;;0.30;;
79412;SDS011;68863;49.528;11.010;2023-08-07T03:13:12;1.27;;;0.30;;
79412;SDS011;68863;49.528;11.010;2023-08-07T03:14:12;1.88;;;0.47;;
79412;SDS011;68863;49.528;11.010;2023-08-07T03:15:12;0.88;;;0.15;;
79412;SDS011;68863;49.528;11.010;2023-08-07T03:16:13;1.63;;;0.20;;
79412;SDS011;68863;49.528;11.010;2023-08-07T03:17:13;1.38;;;0.30;;
79412;SDS011;68863;49.528;11.010;2023-08-07T03:18:13;0.70;;;0.20;;
79412;SDS011;68863;49.528;11.010;2023-08-07T03:19:14;1.02;;;0.22;;
79412;SDS011;68863;49.528;11.010;2023-08-07T03:20:14;1.42;;;0.22;;
79412;SDS011;68863;49.528;11.010;2023-08-07T03:21:17;1.33;;;0.20;;
79412;SDS011;68863;49.528;11.010;2023-08-07T03:22:17;2.15;;;0.20;;
79412;SDS011;68863;49.528;11.010;2023-08-07T03:23:17;1.20;;;0.20;;
79412;SDS011;68863;49.528;11.010;2023-08-07T03:24:18;2.15;;;0.20;;
79412;SDS011;68863;49.528;11.010;2023-08-07T03:25:18;1.95;;;0.30;;
79412;SDS011;68863;49.528;11.010;2023-08-07T03:26:18;1.30;;;0.25;;
79412;SDS011;68863;49.528;11.010;2023-08-07T03:27:19;2.00;;;0.30;;
79412;SDS011;68863;49.528;11.010;2023-08-07T03:28:19;2.58;;;0.52;;
79412;SDS011;68863;49.528;11.010;2023-08-07T03:29:19;2.03;;;0.30;;
79412;SDS011;68863;49.528;11.010;2023-08-07T03:30:19;1.33;;;0.30;;
79412;SDS011;68863;49.528;11.010;2023-08-07T03:31:20;1.70;;;0.13;;
79412;SDS011;68863;49.528;11.010;2023-08-07T03:32:20;2.45;;;0.60;;
79412;SDS011;68863;49.528;11.010;2023-08-07T03:33:20;1.40;;;0.30;;
79412;SDS011;68863;49.528;11.010;2023-08-07T03:34:20;3.35;;;0.40;;
79412;SDS011;68863;49.528;11.010;2023-08-07T03:35:21;1.88;;;0.20;;
79412;SDS011;68863;49.528;11.010;2023-08-07T03:36:21;3.65;;;0.40;;
79412;SDS011;68863;49.528;11.010;2023-08-07T03:37:22;1.25;;;0.30;;
79412;SDS011;68863;49.528;11.010;2023-08-07T03:38:22;3.38;;;0.32;;
79412;SDS011;68863;49.528;11.010;2023-08-07T03:39:22;2.88;;;0.32;;
79412;SDS011;68863;49.528;11.010;2023-08-07T03:40:23;2.40;;;0.30;;
79412;SDS011;68863;49.528;11.010;2023-08-07T03:41:23;1.50;;;0.30;;
79412;SDS011;68863;49.528;11.010;2023-08-07T03:42:23;1.55;;;0.30;;
79412;SDS011;68863;49.528;11.010;2023-08-07T03:43:23;1.58;;;0.38;;
79412;SDS011;68863;49.528;11.010;2023-08-07T03:44:24;0.93;;;0.30;;
79412;SDS011;68863;49.528;11.010;2023-08-07T03:45:24;3.30;;;0.40;;
79412;SDS011;68863;49.528;11.010;2023-08-07T03:46:24;2.35;;;0.40;;
79412;SDS011;68863;49.528;11.010;2023-08-07T03:47:24;0.90;;;0.20;;
79412;SDS011;68863;49.528;11.010;2023-08-07T03:48:25;2.57;;;0.20;;
79412;SDS011;68863;49.528;11.010;2023-08-07T03:49:25;1.88;;;0.30;;
79412;SDS011;68863;49.528;11.010;2023-08-07T03:50:25;1.52;;;0.28;;
79412;SDS011;68863;49.528;11.010;2023-08-07T03:51:26;3.25;;;0.40;;
79412;SDS011;68863;49.528;11.010;2023-08-07T03:52:26;1.73;;;0.30;;
79412;SDS011;68863;49.528;11.010;2023-08-07T03:53:27;2.10;;;0.30;;
79412;SDS011;68863;49.528;11.010;2023-08-07T03:54:27;3.08;;;0.50;;
79412;SDS011;68863;49.528;11.010;2023-08-07T03:55:27;1.33;;;0.30;;
79412;SDS011;68863;49.528;11.010;2023-08-07T03:56:27;1.40;;;0.30;;
79412;SDS011;68863;49.528;11.010;2023-08-07T03:57:28;1.75;;;0.20;;
79412;SDS011;68863;49.528;11.010;2023-08-07T03:58:28;2.60;;;0.50;;
79412;SDS011;68863;49.528;11.010;2023-08-07T03:59:28;2.15;;;0.40;;
79412;SDS011;68863;49.528;11.010;2023-08-07T04:00:29;2.20;;;0.43;;
79412;SDS011;68863;49.528;11.010;2023-08-07T04:01:29;3.00;;;0.40;;
79412;SDS011;68863;49.528;11.010;2023-08-07T04:02:29;2.30;;;0.30;;
79412;SDS011;68863;49.528;11.010;2023-08-07T04:03:30;1.85;;;0.35;;
79412;SDS011;68863;49.528;11.010;2023-08-07T04:04:30;1.63;;;0.28;;
79412;SDS011;68863;49.528;11.010;2023-08-07T04:05:32;1.97;;;0.30;;
79412;SDS011;68863;49.528;11.010;2023-08-07T04:06:33;2.15;;;0.40;;
79412;SDS011;68863;49.528;11.010;2023-08-07T04:07:34;1.67;;;0.30;;
79412;SDS011;68863;49.528;11.010;2023-08-07T04:08:34;2.67;;;0.43;;
79412;SDS011;68863;49.528;11.010;2023-08-07T04:09:34;2.57;;;0.50;;
79412;SDS011;68863;49.528;11.010;2023-08-07T04:10:35;2.33;;;0.40;;
79412;SDS011;68863;49.528;11.010;2023-08-07T04:11:35;2.47;;;0.40;;
79412;SDS011;68863;49.528;11.010;2023-08-07T04:12:36;1.45;;;0.32;;
79412;SDS011;68863;49.528;11.010;2023-08-07T04:13:36;4.25;;;0.60;;
79412;SDS011;68863;49.528;11.010;2023-08-07T04:14:36;2.38;;;0.80;;
79412;SDS011;68863;49.528;11.010;2023-08-07T04:15:37;4.07;;;0.40;;
79412;SDS011;68863;49.528;11.010;2023-08-07T04:16:37;3.03;;;0.52;;
79412;SDS011;68863;49.528;11.010;2023-08-07T04:17:37;4.15;;;0.85;;
79412;SDS011;68863;49.528;11.010;2023-08-07T04:18:37;3.63;;;0.50;;
79412;SDS011;68863;49.528;11.010;2023-08-07T04:19:38;2.95;;;0.32;;
79412;SDS011;68863;49.528;11.010;2023-08-07T04:20:38;3.35;;;0.50;;
79412;SDS011;68863;49.528;11.010;2023-08-07T04:21:38;3.80;;;0.40;;
79412;SDS011;68863;49.528;11.010;2023-08-07T04:22:39;2.53;;;0.40;;
79412;SDS011;68863;49.528;11.010;2023-08-07T04:23:39;3.40;;;0.60;;
79412;SDS011;68863;49.528;11.010;2023-08-07T04:24:39;2.43;;;0.40;;
79412;SDS011;68863;49.528;11.010;2023-08-07T04:25:39;2.43;;;0.50;;
79412;SDS011;68863;49.528;11.010;2023-08-07T04:26:40;2.15;;;0.40;;
79412;SDS011;68863;49.528;11.010;2023-08-07T04:27:40;2.13;;;0.63;;
79412;SDS011;68863;49.528;11.010;2023-08-07T04:28:40;2.65;;;0.40;;
79412;SDS011;68863;49.528;11.010;2023-08-07T04:29:41;2.72;;;0.47;;
79412;SDS011;68863;49.528;11.010;2023-08-07T04:30:41;3.47;;;0.40;;
79412;SDS011;68863;49.528;11.010;2023-08-07T04:31:41;3.20;;;0.63;;
79412;SDS011;68863;49.528;11.010;2023-08-07T04:32:41;2.17;;;0.80;;
79412;SDS011;68863;49.528;11.010;2023-08-07T04:33:42;3.42;;;0.60;;
79412;SDS011;68863;49.528;11.010;2023-08-07T04:34:42;2.33;;;0.40;;
79412;SDS011;68863;49.528;11.010;2023-08-07T04:35:42;2.47;;;0.40;;
79412;SDS011;68863;49.528;11.010;2023-08-07T04:36:43;2.50;;;0.50;;
79412;SDS011;68863;49.528;11.010;2023-08-07T04:37:43;3.47;;;0.80;;
79412;SDS011;68863;49.528;11.010;2023-08-07T04:38:44;2.43;;;0.47;;
79412;SDS011;68863;49.528;11.010;2023-08-07T04:39:44;4.87;;;0.50;;
79412;SDS011;68863;49.528;11.010;2023-08-07T04:40:48;3.05;;;0.45;;
79412;SDS011;68863;49.528;11.010;2023-08-07T04:41:49;1.70;;;0.47;;
79412;SDS011;68863;49.528;11.010;2023-08-07T04:42:50;2.83;;;0.43;;
79412;SDS011;68863;49.528;11.010;2023-08-07T04:43:50;2.40;;;0.43;;
79412;SDS011;68863;49.528;11.010;2023-08-07T04:44:50;2.08;;;0.50;;
79412;SDS011;68863;49.528;11.010;2023-08-07T04:45:51;3.78;;;0.60;;
79412;SDS011;68863;49.528;11.010;2023-08-07T04:46:51;2.35;;;0.45;;
79412;SDS011;68863;49.528;11.010;2023-08-07T04:47:52;4.68;;;0.75;;
79412;SDS011;68863;49.528;11.010;2023-08-07T04:48:52;2.80;;;0.60;;
79412;SDS011;68863;49.528;11.010;2023-08-07T04:49:54;2.95;;;0.40;;
79412;SDS011;68863;49.528;11.010;2023-08-07T04:50:54;3.70;;;0.80;;
79412;SDS011;68863;49.528;11.010;2023-08-07T04:51:55;2.15;;;0.40;;
79412;SDS011;68863;49.528;11.010;2023-08-07T04:52:56;2.50;;;0.60;;
79412;SDS011;68863;49.528;11.010;2023-08-07T04:53:56;5.33;;;0.70;;
79412;SDS011;68863;49.528;11.010;2023-08-07T04:54:56;1.98;;;0.63;;
79412;SDS011;68863;49.528;11.010;2023-08-07T04:55:56;3.07;;;0.50;;
79412;SDS011;68863;49.528;11.010;2023-08-07T04:56:57;2.60;;;0.45;;
79412;SDS011;68863;49.528;11.010;2023-08-07T04:57:57;3.37;;;0.60;;
79412;SDS011;68863;49.528;11.010;2023-08-07T04:58:57;3.05;;;0.63;;
79412;SDS011;68863;49.528;11.010;2023-08-07T04:59:58;3.07;;;0.93;;
79412;SDS011;68863;49.528;11.010;2023-08-07T05:00:58;3.80;;;0.60;;
79412;SDS011;68863;49.528;11.010;2023-08-07T05:01:58;3.53;;;0.80;;
79412;SDS011;68863;49.528;11.010;2023-08-07T05:02:59;2.13;;;0.60;;
79412;SDS011;68863;49.528;11.010;2023-08-07T05:03:59;3.63;;;0.63;;
79412;SDS011;68863;49.528;11.010;2023-08-07T05:04:59;3.53;;;0.65;;
79412;SDS011;68863;49.528;11.010;2023-08-07T05:06:00;2.00;;;0.45;;
79412;SDS011;68863;49.528;11.010;2023-08-07T05:07:01;2.45;;;0.52;;
79412;SDS011;68863;49.528;11.010;2023-08-07T05:08:01;3.57;;;0.73;;
79412;SDS011;68863;49.528;11.010;2023-08-07T05:09:02;2.42;;;0.63;;
79412;SDS011;68863;49.528;11.010;2023-08-07T05:10:03;4.18;;;0.60;;
79412;SDS011;68863;49.528;11.010;2023-08-07T05:11:03;4.95;;;1.02;;
79412;SDS011;68863;49.528;11.010;2023-08-07T05:12:04;2.65;;;0.57;;
79412;SDS011;68863;49.528;11.010;2023-08-07T05:13:06;2.50;;;0.35;;
79412;SDS011;68863;49.528;11.010;2023-08-07T05:14:06;2.78;;;0.57;;
79412;SDS011;68863;49.528;11.010;2023-08-07T05:15:07;4.10;;;0.77;;
79412;SDS011;68863;49.528;11.010;2023-08-07T05:16:07;3.28;;;0.60;;
79412;SDS011;68863;49.528;11.010;2023-08-07T05:17:08;2.63;;;0.50;;
79412;SDS011;68863;49.528;11.010;2023-08-07T05:18:08;2.57;;;0.70;;
79412;SDS011;68863;49.528;11.010;2023-08-07T05:19:08;2.97;;;0.60;;
79412;SDS011;68863;49.528;11.010;2023-08-07T05:20:08;3.65;;;0.75;;
79412;SDS011;68863;49.528;11.010;2023-08-07T05:21:09;2.95;;;0.82;;
79412;SDS011;68863;49.528;11.010;2023-08-07T05:22:09;2.92;;;0.73;;
79412;SDS011;68863;49.528;11.010;2023-08-07T05:23:10;4.37;;;0.83;;
79412;SDS011;68863;49.528;11.010;2023-08-07T05:24:10;3.20;;;0.70;;
79412;SDS011;68863;49.528;11.010;2023-08-07T05:25:12;3.45;;;0.80;;
79412;SDS011;68863;49.528;11.010;2023-08-07T05:26:16;3.78;;;0.70;;
79412;SDS011;68863;49.528;11.010;2023-08-07T05:27:16;2.17;;;0.63;;
79412;SDS011;68863;49.528;11.010;2023-08-07T05:28:17;4.50;;;0.90;;
79412;SDS011;68863;49.528;11.010;2023-08-07T05:29:17;4.97;;;0.63;;
79412;SDS011;68863;49.528;11.010;2023-08-07T05:30:17;4.88;;;0.60;;
79412;SDS011;68863;49.528;11.010;2023-08-07T05:31:18;3.43;;;0.70;;
79412;SDS011;68863;49.528;11.010;2023-08-07T05:32:18;5.05;;;0.80;;
79412;SDS011;68863;49.528;11.010;2023-08-07T05:33:18;3.57;;;0.60;;
79412;SDS011;68863;49.528;11.010;2023-08-07T05:34:18;4.83;;;0.97;;
79412;SDS011;68863;49.528;11.010;2023-08-07T05:35:19;5.63;;;0.80;;
79412;SDS011;68863;49.528;11.010;2023-08-07T05:36:19;3.72;;;0.70;;
79412;SDS011;68863;49.528;11.010;2023-08-07T05:37:19;3.60;;;0.50;;
79412;SDS011;68863;49.528;11.010;2023-08-07T05:38:19;2.78;;;0.63;;
79412;SDS011;68863;49.528;11.010;2023-08-07T05:39:20;3.10;;;0.60;;
79412;SDS011;68863;49.528;11.010;2023-08-07T05:40:20;3.73;;;0.83;;
79412;SDS011;68863;49.528;11.010;2023-08-07T05:41:20;4.15;;;0.52;;
79412;SDS011;68863;49.528;11.010;2023-08-07T05:42:21;4.20;;;0.73;;
79412;SDS011;68863;49.528;11.010;2023-08-07T05:43:21;3.55;;;0.90;;
79412;SDS011;68863;49.528;11.010;2023-08-07T05:44:21;3.33;;;0.65;;
79412;SDS011;68863;49.528;11.010;2023-08-07T05:45:21;2.77;;;0.60;;
79412;SDS011;68863;49.528;11.010;2023-08-07T05:46:22;3.90;;;0.60;;
79412;SDS011;68863;49.528;11.010;2023-08-07T05:47:22;4.10;;;0.73;;
79412;SDS011;68863;49.528;11.010;2023-08-07T05:48:22;4.50;;;0.65;;
79412;SDS011;68863;49.528;11.010;2023-08-07T05:49:22;5.28;;;0.73;;
79412;SDS011;68863;49.528;11.010;2023-08-07T05:50:23;2.75;;;0.55;;
79412;SDS011;68863;49.528;11.010;2023-08-07T05:51:23;3.35;;;0.68;;
79412;SDS011;68863;49.528;11.010;2023-08-07T05:52:23;1.88;;;0.43;;
79412;SDS011;68863;49.528;11.010;2023-08-07T05:53:24;3.33;;;0.90;;
79412;SDS011;68863;49.528;11.010;2023-08-07T05:54:24;2.60;;;0.70;;
79412;SDS011;68863;49.528;11.010;2023-08-07T05:55:24;4.73;;;0.60;;
79412;SDS011;68863;49.528;11.010;2023-08-07T05:56:25;4.32;;;0.68;;
79412;SDS011;68863;49.528;11.010;2023-08-07T05:57:25;2.07;;;0.50;;
79412;SDS011;68863;49.528;11.010;2023-08-07T05:58:25;3.50;;;0.50;;
79412;SDS011;68863;49.528;11.010;2023-08-07T05:59:26;4.23;;;0.60;;
79412;SDS011;68863;49.528;11.010;2023-08-07T06:00:26;2.03;;;0.60;;
79412;SDS011;68863;49.528;11.010;2023-08-07T06:01:28;4.85;;;0.60;;
79412;SDS011;68863;49.528;11.010;2023-08-07T06:02:31;2.17;;;0.57;;